createdAt,value
2022-09-07T00:02:45.021Z,100001.22
2022-09-07T00:05:50.223Z,100000.47
2022-09-07T00:08:53.238Z,99992.47
2022-09-07T00:11:56.039Z,99989.75
2022-09-07T00:15:00.267Z,99993.69
2022-09-07T00:18:03.326Z,100003.34
2022-09-07T00:21:08.344Z,99999.72
2022-09-07T00:24:11.049Z,100004.97
2022-09-07T00:27:13.786Z,100012.91
2022-09-07T00:30:18.087Z,100008.03
2022-09-07T00:33:21.201Z,99998.81
2022-09-07T00:36:24.742Z,99994.31
2022-09-07T00:39:27.564Z,99993.44
2022-09-07T00:42:30.510Z,99993.84
2022-09-07T00:45:34.571Z,99993.09
2022-09-07T00:48:44.926Z,99988.00
2022-09-07T00:51:53.315Z,100004.47
2022-09-07T00:55:00.241Z,100007.34
2022-09-07T00:58:04.250Z,100005.63
2022-09-07T01:01:09.862Z,99995.75
2022-09-07T01:04:12.845Z,100000.50
2022-09-07T01:07:16.009Z,99988.13
2022-09-07T01:10:19.132Z,99993.75
2022-09-07T01:13:21.913Z,99975.69
2022-09-07T01:16:37.188Z,99972.22
2022-09-07T01:20:18.148Z,99978.22
2022-09-07T01:24:02.564Z,99979.06
2022-09-07T01:27:33.064Z,99978.59
2022-09-07T01:30:39.732Z,99984.19
2022-09-07T01:33:52.837Z,99987.94
2022-09-07T01:37:01.753Z,99986.47
2022-09-07T01:40:11.725Z,99985.41
2022-09-07T01:43:21.609Z,99995.03
2022-09-07T01:46:29.178Z,100007.38
2022-09-07T01:49:37.954Z,99996.28
2022-09-07T01:52:45.410Z,99991.41
2022-09-07T01:55:53.375Z,99980.44
2022-09-07T01:58:59.748Z,99981.44
2022-09-07T02:02:08.486Z,99994.16
2022-09-07T02:05:15.768Z,99985.19
2022-09-07T02:08:24.965Z,99995.91
2022-09-07T02:11:36.778Z,100003.25
2022-09-07T02:14:42.765Z,100008.00
2022-09-07T02:17:51.375Z,100002.50
2022-09-07T02:20:58.116Z,100007.13
2022-09-07T02:24:07.291Z,100018.09
2022-09-07T02:27:13.231Z,100017.09
2022-09-07T02:30:16.839Z,100028.94
2022-09-07T02:33:21.049Z,100024.34
2022-09-07T02:36:27.967Z,100035.78
2022-09-07T02:39:30.787Z,100032.78
2022-09-07T02:42:35.490Z,100050.13
2022-09-07T02:45:52.461Z,100047.03
2022-09-07T02:49:09.835Z,100053.13
2022-09-07T02:52:21.524Z,100070.34
2022-09-07T02:55:33.992Z,100068.59
2022-09-07T02:58:47.272Z,100094.03
2022-09-07T03:01:58.433Z,100090.66
2022-09-07T03:05:11.060Z,100094.53
2022-09-07T03:08:19.513Z,100102.75
2022-09-07T03:11:23.577Z,100107.75
2022-09-07T03:14:30.242Z,100108.63
2022-09-07T03:17:33.077Z,100095.69
2022-09-07T03:20:37.461Z,100091.88
2022-09-07T03:23:40.151Z,100091.66
2022-09-07T03:26:45.791Z,100070.88
2022-09-07T03:29:48.485Z,100070.22
2022-09-07T03:32:51.321Z,100036.50
2022-09-07T03:36:03.291Z,100026.03
2022-09-07T03:39:07.359Z,100031.72
2022-09-07T03:42:10.128Z,100021.88
2022-09-07T03:45:12.864Z,100020.56
2022-09-07T03:48:15.719Z,100010.22
2022-09-07T03:51:20.171Z,99993.16
2022-09-07T03:54:23.226Z,99931.88
2022-09-07T03:57:26.111Z,99964.06
2022-09-07T04:00:28.857Z,99976.72
2022-09-07T04:03:31.616Z,99971.41
2022-09-07T04:06:36.627Z,99965.28
2022-09-07T04:09:39.468Z,99948.34
2022-09-07T04:12:42.189Z,99951.63
2022-09-07T04:15:44.917Z,99951.34
2022-09-07T04:18:49.670Z,99956.59
2022-09-07T04:21:54.760Z,99962.06
2022-09-07T04:24:57.481Z,99954.84
2022-09-07T04:28:00.332Z,99955.84
2022-09-07T04:31:03.578Z,99943.41
2022-09-07T04:34:07.183Z,99934.66
2022-09-07T04:37:12.572Z,99948.63
2022-09-07T04:40:15.555Z,99956.59
2022-09-07T04:43:18.305Z,99971.28
2022-09-07T04:46:24.336Z,99970.41
2022-09-07T04:49:27.771Z,99971.66
2022-09-07T04:52:31.846Z,99973.75
2022-09-07T04:55:34.593Z,99978.47
2022-09-07T04:58:37.309Z,99976.00
2022-09-07T05:01:40.082Z,99975.25
2022-09-07T05:04:42.887Z,99974.50
2022-09-07T05:07:46.920Z,99976.00
2022-09-07T05:10:52.607Z,99973.88
2022-09-07T05:13:56.745Z,99977.16
2022-09-07T05:16:59.501Z,99988.81
2022-09-07T05:20:02.555Z,99992.31
2022-09-07T05:23:06.921Z,99993.19
2022-09-07T05:26:10.813Z,99987.34
2022-09-07T05:32:36.562Z,100004.28
2022-09-07T05:35:39.272Z,100006.78
2022-09-07T05:38:43.650Z,100016.63
2022-09-07T05:41:46.331Z,100025.84
2022-09-07T05:44:49.078Z,100025.78
2022-09-07T05:47:52.141Z,100026.25
2022-09-07T05:50:54.849Z,100027.63
2022-09-07T05:53:59.770Z,100026.38
2022-09-07T05:57:03.913Z,100023.91
2022-09-07T06:00:07.383Z,100031.88
2022-09-07T06:03:10.257Z,100029.38
2022-09-07T06:06:14.852Z,100028.13
2022-09-07T06:09:18.889Z,100025.38
2022-09-07T06:12:22.063Z,100027.22
2022-09-07T06:15:24.809Z,100032.81
2022-09-07T06:18:31.447Z,100028.06
2022-09-07T06:21:36.834Z,100025.28
2022-09-07T06:24:40.920Z,100022.31
2022-09-07T06:27:43.691Z,100027.66
2022-09-07T06:30:46.593Z,100032.03
2022-09-07T06:33:50.306Z,100025.41
2022-09-07T06:36:53.042Z,100013.69
2022-09-07T06:39:57.404Z,100027.63
2022-09-07T06:43:00.242Z,100023.06
2022-09-07T06:55:03.417Z,100013.59
2022-09-07T06:58:06.465Z,100036.16
2022-09-07T07:01:12.080Z,100037.47
2022-09-07T07:04:15.175Z,100046.25
2022-09-07T07:07:17.927Z,100042.03
2022-09-07T07:10:24.803Z,100024.25
2022-09-07T07:13:28.073Z,100041.47
2022-09-07T07:16:31.133Z,100053.22
2022-09-07T07:19:34.012Z,100050.97
2022-09-07T07:22:46.402Z,100054.47
2022-09-07T07:25:50.929Z,100054.34
2022-09-07T07:29:03.721Z,100050.47
2022-09-07T07:32:07.348Z,100035.72
2022-09-07T07:35:11.149Z,100053.44
2022-09-07T07:41:56.456Z,100051.78
2022-09-07T07:52:49.456Z,99987.22
2022-09-07T07:54:54.795Z,100048.09
2022-09-07T07:57:58.814Z,100042.09
2022-09-07T08:01:03.360Z,100042.41
2022-09-07T08:04:06.222Z,100034.06
2022-09-07T08:07:12.148Z,99979.97
2022-09-07T08:10:15.054Z,100041.81
2022-09-07T08:13:19.524Z,100005.88
2022-09-07T08:16:23.073Z,100036.38
2022-09-07T08:19:25.798Z,100033.34
2022-09-07T08:22:31.767Z,100036.94
2022-09-07T08:25:37.770Z,100046.94
2022-09-07T08:28:43.948Z,100039.28
2022-09-07T08:31:46.705Z,100049.59
2022-09-07T08:34:49.652Z,100045.09
2022-09-07T08:37:52.349Z,100037.09
2022-09-07T08:40:55.536Z,100038.81
2022-09-07T08:44:02.876Z,100041.13
2022-09-07T08:47:12.759Z,100042.25
2022-09-07T08:50:21.311Z,100045.53
2022-09-07T08:53:25.651Z,100053.50
2022-09-07T08:56:33.944Z,100041.94
2022-09-07T08:59:43.856Z,100044.03
2022-09-07T09:03:28.667Z,100009.63
2022-09-07T09:06:18.665Z,100038.09
2022-09-07T09:09:33.075Z,100038.28
2022-09-07T09:12:55.149Z,100029.06
2022-09-07T09:16:05.891Z,100032.06
2022-09-07T09:19:31.325Z,100032.41
2022-09-07T09:22:34.076Z,100031.09
2022-09-07T09:25:39.648Z,100027.50
2022-09-07T09:28:42.437Z,100030.06
2022-09-07T09:31:46.932Z,100021.53
2022-09-07T09:35:01.975Z,100010.31
2022-09-07T09:38:05.037Z,100001.53
2022-09-07T09:41:09.550Z,100003.88
2022-09-07T09:44:17.092Z,100013.09
2022-09-07T09:47:32.726Z,99982.06
2022-09-07T09:54:07.192Z,99992.06
2022-09-07T09:57:16.256Z,99986.38
2022-09-07T10:00:27.901Z,99980.88
2022-09-07T10:07:04.813Z,99947.03
2022-09-07T10:10:16.458Z,99964.00
2022-09-07T10:13:22.438Z,99959.84
2022-09-07T10:16:39.660Z,99956.88
2022-09-07T10:19:45.277Z,99948.84
2022-09-07T10:22:59.485Z,99944.16
2022-09-07T10:26:22.123Z,99936.16
2022-09-07T10:29:32.397Z,99908.28
2022-09-07T10:32:47.777Z,99927.41
2022-09-07T10:35:59.941Z,99948.22
2022-09-07T10:39:07.617Z,99946.16
2022-09-07T10:42:24.911Z,99944.41
2022-09-07T10:45:38.201Z,99925.63
2022-09-07T10:48:51.384Z,99930.50
2022-09-07T10:52:10.579Z,99932.75
2022-09-07T10:55:18.644Z,99920.06
2022-09-07T10:59:01.409Z,99917.69
2022-09-07T11:02:01.880Z,99915.25
2022-09-07T11:05:12.452Z,99902.09
2022-09-07T11:09:15.191Z,99902.97
2022-09-07T11:15:27.105Z,99908.22
2022-09-07T11:18:34.267Z,99893.47
2022-09-07T11:21:57.307Z,99897.50
2022-09-07T11:28:36.706Z,99889.19
2022-09-07T11:31:44.391Z,99891.03
2022-09-07T11:34:52.495Z,99882.63
2022-09-07T11:37:59.590Z,99858.72
2022-09-07T11:41:19.561Z,99851.84
2022-09-07T11:44:28.467Z,99880.97
2022-09-07T11:47:37.107Z,99880.09
2022-09-07T11:50:47.272Z,99886.97
2022-09-07T11:53:54.754Z,99877.91
2022-09-07T11:57:09.457Z,99839.16
2022-09-07T12:00:18.829Z,99870.47
2022-09-07T12:03:44.056Z,99846.16
2022-09-07T12:07:19.834Z,99851.91
2022-09-07T12:10:37.774Z,99844.25
2022-09-07T12:14:13.251Z,99862.13
2022-09-07T12:17:27.782Z,99858.28
2022-09-07T12:20:41.456Z,99841.41
2022-09-07T12:23:48.465Z,99857.41
2022-09-07T12:26:52.364Z,99829.25
2022-09-07T12:30:29.145Z,99827.09
2022-09-07T12:33:36.729Z,99834.25
2022-09-07T12:36:50.456Z,99839.38
2022-09-07T12:40:32.361Z,99822.50
2022-09-07T12:44:10.350Z,99836.78
2022-09-07T12:47:29.337Z,99830.06
2022-09-07T12:50:39.460Z,99821.59
2022-09-07T12:53:54.209Z,99783.94
2022-09-07T13:00:37.382Z,99818.31
2022-09-07T13:03:53.554Z,99820.16
2022-09-07T13:07:19.385Z,99818.81
2022-09-07T13:10:30.499Z,99802.00
2022-09-07T13:17:29.729Z,99772.56
2022-09-07T13:20:37.602Z,99767.81
2022-09-07T13:23:45.758Z,99785.59
2022-09-07T13:26:54.203Z,99805.50
2022-09-07T13:30:00.506Z,99762.94
2022-09-07T13:33:49.104Z,99814.34
2022-09-07T13:36:51.959Z,99793.59
2022-09-07T13:39:58.432Z,99818.50
2022-09-07T13:43:04.086Z,99809.63
2022-09-07T13:46:18.044Z,99810.06
2022-09-07T13:49:37.331Z,99816.69
2022-09-07T13:52:56.373Z,99802.53
2022-09-07T13:56:12.371Z,99790.78
2022-09-07T13:59:20.464Z,99792.78
2022-09-07T14:02:27.143Z,99788.31
2022-09-07T14:05:30.122Z,99793.53
2022-09-07T14:08:36.728Z,99802.25
2022-09-07T14:11:45.327Z,99813.03
2022-09-07T14:14:48.624Z,99797.13
2022-09-07T14:18:01.606Z,99811.75
2022-09-07T14:21:05.853Z,99793.09
2022-09-07T14:24:28.983Z,99813.63
2022-09-07T14:27:35.415Z,99808.28
2022-09-07T14:30:38.909Z,99815.09
2022-09-07T14:33:47.280Z,99802.41
2022-09-07T14:36:51.753Z,99813.28
2022-09-07T14:39:55.956Z,99805.69
2022-09-07T14:43:00.063Z,99803.47
2022-09-07T14:46:16.681Z,99816.53
2022-09-07T14:49:21.605Z,99799.34
2022-09-07T14:52:33.387Z,99786.78
2022-09-07T14:55:40.507Z,99791.09
2022-09-07T14:58:44.661Z,99794.94
2022-09-07T15:01:47.349Z,99797.53
2022-09-07T15:05:10.933Z,99801.88
2022-09-07T15:08:38.722Z,99796.66
2022-09-07T15:11:41.483Z,99806.34
2022-09-07T15:14:45.997Z,99793.84
2022-09-07T15:17:49.536Z,99791.03
2022-09-07T15:20:52.992Z,99802.06
2022-09-07T15:23:58.560Z,99798.63
2022-09-07T15:27:03.159Z,99764.34
2022-09-07T15:30:10.759Z,99782.41
2022-09-07T15:33:13.848Z,99779.63
2022-09-07T15:36:17.886Z,99773.22
2022-09-07T15:39:22.425Z,99775.81
2022-09-07T15:45:51.288Z,99769.09
2022-09-07T15:48:55.861Z,99744.53
2022-09-07T15:52:06.414Z,99757.78
2022-09-07T15:55:09.876Z,99764.53
2022-09-07T15:58:13.531Z,99763.13
2022-09-07T16:04:41.012Z,99742.75
2022-09-07T16:11:18.712Z,99719.06
2022-09-07T16:14:21.602Z,99718.97
2022-09-07T16:17:27.437Z,99719.22
2022-09-07T16:20:37.840Z,99732.97
2022-09-07T16:23:43.276Z,99738.69
2022-09-07T16:26:45.955Z,99741.75
2022-09-07T16:29:49.105Z,99736.28
2022-09-07T16:32:53.461Z,99729.94
2022-09-07T16:36:01.002Z,99689.84
2022-09-07T16:39:04.115Z,99737.03
2022-09-07T16:42:08.871Z,99722.06
2022-09-07T16:48:37.325Z,99733.47
2022-09-07T16:51:40.911Z,99724.81
2022-09-07T16:54:43.810Z,99736.25
2022-09-07T17:01:11.459Z,99745.06
2022-09-07T17:04:15.660Z,99737.38
2022-09-07T17:07:18.612Z,99740.63
2022-09-07T17:10:21.450Z,99728.63
2022-09-07T17:13:25.487Z,99747.19
2022-09-07T17:16:31.241Z,99753.25
2022-09-07T17:19:36.247Z,99759.03
2022-09-07T17:22:39.060Z,99762.88
2022-09-07T17:25:41.758Z,99766.38
2022-09-07T17:28:46.158Z,99775.91
2022-09-07T17:35:12.953Z,99769.66
2022-09-07T17:41:38.875Z,99770.38
2022-09-07T17:44:41.837Z,99774.91
2022-09-07T17:47:44.996Z,99768.81
2022-09-07T17:50:49.371Z,99767.47
2022-09-07T17:53:58.784Z,99757.03
2022-09-07T17:57:02.044Z,99756.16
2022-09-07T18:00:11.226Z,99757.25
2022-09-07T18:03:14.755Z,99765.03
2022-09-07T18:06:20.032Z,99760.34
2022-09-07T18:09:22.932Z,99751.34
2022-09-07T18:12:25.745Z,99754.81
2022-09-07T18:15:28.901Z,99761.91
2022-09-07T18:18:31.804Z,99765.34
2022-09-07T18:21:37.961Z,99757.34
2022-09-07T18:24:40.742Z,99770.13
2022-09-07T18:27:44.248Z,99773.94
2022-09-07T18:30:47.273Z,99767.69
2022-09-07T18:33:50.009Z,99783.72
2022-09-07T18:36:55.213Z,99803.22
2022-09-07T18:39:58.108Z,99787.41
2022-09-07T18:43:04.251Z,99785.44
2022-09-07T18:46:09.970Z,99807.34
2022-09-07T18:49:12.711Z,99796.06
2022-09-07T18:55:41.344Z,99818.88
2022-09-07T18:58:45.583Z,99832.31
2022-09-07T19:01:48.645Z,99836.44
2022-09-07T19:08:16.053Z,99825.09
2022-09-07T19:11:21.027Z,99823.88
2022-09-07T19:14:23.796Z,99828.28
2022-09-07T19:17:26.497Z,99831.53
2022-09-07T19:20:29.612Z,99841.72
2022-09-07T19:23:34.176Z,99838.38
2022-09-07T19:26:38.862Z,99838.38
2022-09-07T19:29:41.734Z,99837.56
2022-09-07T19:32:44.742Z,99830.97
2022-09-07T19:35:47.751Z,99834.94
2022-09-07T19:38:51.934Z,99825.78
2022-09-07T19:41:54.781Z,99825.38
2022-09-07T19:44:57.574Z,99820.06
2022-09-07T19:48:00.275Z,99822.63
2022-09-07T19:51:03.031Z,99818.84
2022-09-07T19:54:08.296Z,99817.09
2022-09-07T19:57:11.091Z,99819.19
2022-09-07T20:00:14.863Z,99823.69
2022-09-07T20:03:17.576Z,99813.56
2022-09-07T20:06:20.332Z,99796.34
2022-09-07T20:09:24.851Z,99802.19
2022-09-07T20:12:27.795Z,99796.84
2022-09-07T20:15:31.309Z,99772.16
2022-09-07T20:18:36.439Z,99761.28
2022-09-07T20:21:39.169Z,99752.44
2022-09-07T20:24:43.745Z,99752.91
2022-09-07T20:27:46.717Z,99747.13
2022-09-07T20:30:49.423Z,99751.66
2022-09-07T20:33:52.750Z,99755.41
2022-09-07T20:36:56.879Z,99747.88
2022-09-07T20:40:01.152Z,99745.84
2022-09-07T20:43:05.034Z,99745.59
2022-09-07T20:46:09.869Z,99754.88
2022-09-07T20:49:12.719Z,99752.25
2022-09-07T20:52:15.465Z,99741.38
2022-09-07T20:55:19.616Z,99731.25
2022-09-07T20:58:22.310Z,99727.31
2022-09-07T21:01:25.515Z,99723.13
2022-09-07T21:04:28.385Z,99718.94
2022-09-07T21:07:31.080Z,99716.34
2022-09-07T21:10:39.376Z,99725.63
2022-09-07T21:13:42.573Z,99723.63
2022-09-07T21:16:45.237Z,99726.38
2022-09-07T21:19:47.978Z,99722.22
2022-09-07T21:22:50.754Z,99728.00
2022-09-07T21:25:54.905Z,99726.25
2022-09-07T21:28:58.755Z,99731.91
2022-09-07T21:32:03.039Z,99742.06
2022-09-07T21:35:07.012Z,99740.63
2022-09-07T21:38:09.775Z,99747.16
2022-09-07T21:41:16.781Z,99749.16
2022-09-07T21:44:20.409Z,99752.94
2022-09-07T21:47:23.282Z,99751.38
2022-09-07T21:50:26.393Z,99757.03
2022-09-07T21:53:29.429Z,99757.03
2022-09-07T21:56:33.922Z,99757.03
2022-09-07T21:59:36.622Z,99755.56
2022-09-07T22:02:39.553Z,99753.81
2022-09-07T22:05:42.583Z,99758.31
2022-09-07T22:08:45.850Z,99758.31
2022-09-07T22:11:50.438Z,99756.56
2022-09-07T22:14:53.178Z,99745.44
2022-09-07T22:17:56.653Z,99740.06
2022-09-07T22:21:04.299Z,99737.63
2022-09-07T22:24:07.767Z,99743.13
2022-09-07T22:27:11.855Z,99740.09
2022-09-07T22:30:15.584Z,99734.47
2022-09-07T22:33:18.649Z,99740.53
2022-09-07T22:36:23.353Z,99729.69
2022-09-07T22:39:26.346Z,99723.72
2022-09-07T22:42:30.358Z,99706.09
2022-09-07T22:45:33.443Z,99705.34
2022-09-07T22:48:37.024Z,99701.19
2022-09-07T22:51:40.139Z,99689.59
2022-09-07T22:54:42.964Z,99713.19
2022-09-07T22:57:49.693Z,99701.19
2022-09-07T23:00:52.891Z,99689.16
2022-09-07T23:03:56.356Z,99682.66
2022-09-07T23:06:59.376Z,99682.66
2022-09-07T23:10:02.085Z,99675.09
2022-09-07T23:16:09.508Z,99666.84
2022-09-07T23:19:13.659Z,99651.34
2022-09-07T23:22:16.283Z,99649.66
2022-09-07T23:25:18.986Z,99642.41
2022-09-07T23:28:23.411Z,99647.03
2022-09-07T23:31:27.499Z,99652.69
2022-09-07T23:34:30.296Z,99651.66
2022-09-07T23:37:33.373Z,99660.94
2022-09-07T23:40:36.792Z,99648.31
2022-09-07T23:43:41.276Z,99644.59
2022-09-07T23:46:44.435Z,99653.16
2022-09-07T23:49:47.595Z,99634.91
2022-09-07T23:52:50.297Z,99652.41
2022-09-07T23:55:53.555Z,99637.06
2022-09-07T23:58:58.074Z,99670.19
